sensor_id;sensor_type;location;lat;lon;timestamp;pressure;altitude;pressure_sealevel;temperature;humidity
19594;BME280;9944;48.240;16.478;2023-01-26T00:02:06;100525.28;;;0.69;82.92
19594;BME280;9944;48.240;16.478;2023-01-26T00:06:12;100521.06;;;0.71;83.18
19594;BME280;9944;48.240;16.478;2023-01-26T00:10:17;100511.38;;;0.69;83.18
19594;BME280;9944;48.240;16.478;2023-01-26T00:14:20;100500.03;;;0.67;82.91
19594;BME280;9944;48.240;16.478;2023-01-26T00:18:23;100508.72;;;0.67;82.83
19594;BME280;9944;48.240;16.478;2023-01-26T00:22:26;100501.53;;;0.61;82.94
19594;BME280;9944;48.240;16.478;2023-01-26T00:26:31;100507.69;;;0.63;83.28
19594;BME280;9944;48.240;16.478;2023-01-26T00:30:34;100496.19;;;0.58;83.22
19594;BME280;9944;48.240;16.478;2023-01-26T00:34:37;100495.22;;;0.56;83.08
19594;BME280;9944;48.240;16.478;2023-01-26T00:38:40;100489.06;;;0.54;83.03
19594;BME280;9944;48.240;16.478;2023-01-26T00:42:45;100493.94;;;0.48;82.82
19594;BME280;9944;48.240;16.478;2023-01-26T00:46:48;100481.81;;;0.47;83.29
19594;BME280;9944;48.240;16.478;2023-01-26T00:50:52;100487.16;;;0.50;83.48
19594;BME280;9944;48.240;16.478;2023-01-26T00:54:55;100476.75;;;0.50;83.60
19594;BME280;9944;48.240;16.478;2023-01-26T00:59:00;100466.50;;;0.53;83.59
19594;BME280;9944;48.240;16.478;2023-01-26T01:03:03;100470.97;;;0.56;83.55
19594;BME280;9944;48.240;16.478;2023-01-26T01:07:06;100470.06;;;0.55;83.59
19594;BME280;9944;48.240;16.478;2023-01-26T01:11:11;100460.66;;;0.57;83.59
19594;BME280;9944;48.240;16.478;2023-01-26T01:15:15;100462.47;;;0.60;83.49
19594;BME280;9944;48.240;16.478;2023-01-26T01:19:19;100454.59;;;0.58;83.47
19594;BME280;9944;48.240;16.478;2023-01-26T01:23:22;100455.53;;;0.59;83.33
19594;BME280;9944;48.240;16.478;2023-01-26T01:27:25;100450.25;;;0.57;83.30
19594;BME280;9944;48.240;16.478;2023-01-26T01:31:30;100445.13;;;0.59;83.36
19594;BME280;9944;48.240;16.478;2023-01-26T01:35:34;100437.41;;;0.60;83.33
19594;BME280;9944;48.240;16.478;2023-01-26T01:39:37;100440.13;;;0.63;83.33
19594;BME280;9944;48.240;16.478;2023-01-26T01:43:40;100432.25;;;0.62;83.22
19594;BME280;9944;48.240;16.478;2023-01-26T01:47:44;100428.78;;;0.61;83.21
19594;BME280;9944;48.240;16.478;2023-01-26T01:51:51;100418.41;;;0.61;83.25
19594;BME280;9944;48.240;16.478;2023-01-26T01:55:58;100413.88;;;0.57;83.30
19594;BME280;9944;48.240;16.478;2023-01-26T02:00:06;100400.59;;;0.51;82.79
19594;BME280;9944;48.240;16.478;2023-01-26T02:04:18;100406.75;;;0.53;82.90
19594;BME280;9944;48.240;16.478;2023-01-26T02:08:26;100410.19;;;0.52;82.91
19594;BME280;9944;48.240;16.478;2023-01-26T02:12:32;100404.75;;;0.48;82.81
19594;BME280;9944;48.240;16.478;2023-01-26T02:16:35;100394.28;;;0.46;83.11
19594;BME280;9944;48.240;16.478;2023-01-26T02:20:44;100388.16;;;0.44;83.26
19594;BME280;9944;48.240;16.478;2023-01-26T02:24:50;100396.91;;;0.46;83.33
19594;BME280;9944;48.240;16.478;2023-01-26T02:28:56;100389.94;;;0.45;83.03
19594;BME280;9944;48.240;16.478;2023-01-26T02:33:00;100390.75;;;0.44;83.45
19594;BME280;9944;48.240;16.478;2023-01-26T02:37:03;100384.06;;;0.49;83.45
19594;BME280;9944;48.240;16.478;2023-01-26T02:41:07;100373.81;;;0.52;83.64
19594;BME280;9944;48.240;16.478;2023-01-26T02:45:14;100367.78;;;0.53;83.59
19594;BME280;9944;48.240;16.478;2023-01-26T02:49:20;100363.44;;;0.52;83.26
19594;BME280;9944;48.240;16.478;2023-01-26T02:53:40;100360.84;;;0.52;83.26
19594;BME280;9944;48.240;16.478;2023-01-26T02:57:44;100358.16;;;0.51;83.24
19594;BME280;9944;48.240;16.478;2023-01-26T03:01:49;100352.91;;;0.49;83.21
19594;BME280;9944;48.240;16.478;2023-01-26T03:05:54;100348.47;;;0.47;82.98
19594;BME280;9944;48.240;16.478;2023-01-26T03:09:57;100340.72;;;0.48;83.31
19594;BME280;9944;48.240;16.478;2023-01-26T03:14:02;100343.19;;;0.45;83.27
19594;BME280;9944;48.240;16.478;2023-01-26T03:18:08;100340.72;;;0.48;83.43
19594;BME280;9944;48.240;16.478;2023-01-26T03:22:31;100346.88;;;0.50;83.46
19594;BME280;9944;48.240;16.478;2023-01-26T03:26:54;100337.47;;;0.52;83.47
19594;BME280;9944;48.240;16.478;2023-01-26T03:31:15;100339.13;;;0.52;83.40
19594;BME280;9944;48.240;16.478;2023-01-26T03:35:20;100335.47;;;0.47;83.14
19594;BME280;9944;48.240;16.478;2023-01-26T03:39:24;100340.22;;;0.37;83.18
19594;BME280;9944;48.240;16.478;2023-01-26T03:43:44;100331.56;;;0.37;83.39
19594;BME280;9944;48.240;16.478;2023-01-26T03:48:09;100334.16;;;0.37;83.49
19594;BME280;9944;48.240;16.478;2023-01-26T03:52:31;100330.75;;;0.38;83.46
19594;BME280;9944;48.240;16.478;2023-01-26T03:56:52;100324.56;;;0.36;83.50
19594;BME280;9944;48.240;16.478;2023-01-26T04:00:56;100319.53;;;0.39;83.76
19594;BME280;9944;48.240;16.478;2023-01-26T04:04:59;100315.16;;;0.38;83.69
19594;BME280;9944;48.240;16.478;2023-01-26T04:09:24;100315.03;;;0.35;83.73
19594;BME280;9944;48.240;16.478;2023-01-26T04:13:27;100304.78;;;0.38;83.72
19594;BME280;9944;48.240;16.478;2023-01-26T04:17:55;100303.78;;;0.36;83.88
19594;BME280;9944;48.240;16.478;2023-01-26T04:22:15;100297.81;;;0.37;84.06
19594;BME280;9944;48.240;16.478;2023-01-26T04:26:23;100290.81;;;0.36;83.87
19594;BME280;9944;48.240;16.478;2023-01-26T04:30:27;100295.06;;;0.34;83.93
19594;BME280;9944;48.240;16.478;2023-01-26T04:34:31;100300.25;;;0.34;84.09
19594;BME280;9944;48.240;16.478;2023-01-26T04:38:36;100292.75;;;0.40;84.30
19594;BME280;9944;48.240;16.478;2023-01-26T04:42:41;100284.13;;;0.41;84.38
19594;BME280;9944;48.240;16.478;2023-01-26T04:46:44;100279.00;;;0.42;84.60
19594;BME280;9944;48.240;16.478;2023-01-26T04:50:53;100284.41;;;0.47;84.63
19594;BME280;9944;48.240;16.478;2023-01-26T04:54:56;100274.03;;;0.47;84.50
19594;BME280;9944;48.240;16.478;2023-01-26T04:59:03;100274.16;;;0.50;84.75
19594;BME280;9944;48.240;16.478;2023-01-26T05:03:08;100269.84;;;0.51;84.59
19594;BME280;9944;48.240;16.478;2023-01-26T05:07:11;100270.59;;;0.48;84.77
19594;BME280;9944;48.240;16.478;2023-01-26T05:11:15;100262.13;;;0.52;84.83
19594;BME280;9944;48.240;16.478;2023-01-26T05:15:28;100260.47;;;0.54;84.81
19594;BME280;9944;48.240;16.478;2023-01-26T05:19:57;100258.69;;;0.53;84.67
19594;BME280;9944;48.240;16.478;2023-01-26T05:24:03;100250.09;;;0.54;84.54
19594;BME280;9944;48.240;16.478;2023-01-26T05:28:12;100253.50;;;0.53;84.61
19594;BME280;9944;48.240;16.478;2023-01-26T05:32:18;100248.19;;;0.50;84.31
19594;BME280;9944;48.240;16.478;2023-01-26T05:36:23;100252.63;;;0.53;84.88
19594;BME280;9944;48.240;16.478;2023-01-26T05:40:27;100253.63;;;0.56;85.16
19594;BME280;9944;48.240;16.478;2023-01-26T05:44:30;100252.97;;;0.60;85.05
19594;BME280;9944;48.240;16.478;2023-01-26T05:48:40;100259.94;;;0.61;85.03
19594;BME280;9944;48.240;16.478;2023-01-26T05:52:43;100264.41;;;0.66;85.12
19594;BME280;9944;48.240;16.478;2023-01-26T05:56:47;100264.31;;;0.62;84.76
19594;BME280;9944;48.240;16.478;2023-01-26T06:00:51;100269.22;;;0.56;84.64
19594;BME280;9944;48.240;16.478;2023-01-26T06:05:01;100267.47;;;0.55;84.64
19594;BME280;9944;48.240;16.478;2023-01-26T06:09:05;100265.69;;;0.54;84.76
19594;BME280;9944;48.240;16.478;2023-01-26T06:13:25;100258.84;;;0.56;84.99
19594;BME280;9944;48.240;16.478;2023-01-26T06:17:38;100255.56;;;0.60;84.97
19594;BME280;9944;48.240;16.478;2023-01-26T06:21:45;100260.78;;;0.60;84.78
19594;BME280;9944;48.240;16.478;2023-01-26T06:25:48;100258.09;;;0.59;84.79
19594;BME280;9944;48.240;16.478;2023-01-26T06:29:53;100257.19;;;0.58;84.82
19594;BME280;9944;48.240;16.478;2023-01-26T06:33:56;100261.66;;;0.61;84.81
19594;BME280;9944;48.240;16.478;2023-01-26T06:38:01;100259.13;;;0.62;84.72
19594;BME280;9944;48.240;16.478;2023-01-26T06:42:06;100255.75;;;0.65;84.84
19594;BME280;9944;48.240;16.478;2023-01-26T06:46:12;100266.34;;;0.70;85.07
19594;BME280;9944;48.240;16.478;2023-01-26T06:50:19;100255.19;;;0.72;84.99
19594;BME280;9944;48.240;16.478;2023-01-26T06:54:24;100261.31;;;0.73;84.74
19594;BME280;9944;48.240;16.478;2023-01-26T06:58:46;100256.84;;;0.70;84.83
19594;BME280;9944;48.240;16.478;2023-01-26T07:03:09;100261.31;;;0.73;84.62
19594;BME280;9944;48.240;16.478;2023-01-26T07:07:13;100257.78;;;0.72;84.47
19594;BME280;9944;48.240;16.478;2023-01-26T07:11:17;100266.50;;;0.73;84.60
19594;BME280;9944;48.240;16.478;2023-01-26T07:15:21;100259.50;;;0.72;84.54
19594;BME280;9944;48.240;16.478;2023-01-26T07:19:24;100257.72;;;0.71;84.59
19594;BME280;9944;48.240;16.478;2023-01-26T07:23:27;100253.28;;;0.68;84.54
19594;BME280;9944;48.240;16.478;2023-01-26T07:27:32;100251.56;;;0.69;84.67
19594;BME280;9944;48.240;16.478;2023-01-26T07:31:35;100249.13;;;0.72;84.88
19594;BME280;9944;48.240;16.478;2023-01-26T07:35:39;100252.53;;;0.71;84.80
19594;BME280;9944;48.240;16.478;2023-01-26T07:39:42;100249.25;;;0.75;84.93
19594;BME280;9944;48.240;16.478;2023-01-26T07:43:46;100242.28;;;0.74;84.79
19594;BME280;9944;48.240;16.478;2023-01-26T07:47:53;100237.91;;;0.73;84.78
19594;BME280;9944;48.240;16.478;2023-01-26T07:51:56;100237.06;;;0.74;84.97
19594;BME280;9944;48.240;16.478;2023-01-26T07:56:07;100239.66;;;0.74;84.93
19594;BME280;9944;48.240;16.478;2023-01-26T08:00:13;100239.75;;;0.75;85.16
19594;BME280;9944;48.240;16.478;2023-01-26T08:04:16;100242.28;;;0.74;85.04
19594;BME280;9944;48.240;16.478;2023-01-26T08:08:20;100245.81;;;0.76;85.12
19594;BME280;9944;48.240;16.478;2023-01-26T08:12:23;100249.41;;;0.78;85.08
19594;BME280;9944;48.240;16.478;2023-01-26T08:16:27;100244.19;;;0.78;85.01
19594;BME280;9944;48.240;16.478;2023-01-26T08:20:30;100243.91;;;0.72;84.84
19594;BME280;9944;48.240;16.478;2023-01-26T08:24:34;100245.00;;;0.77;85.38
19594;BME280;9944;48.240;16.478;2023-01-26T08:28:37;100242.78;;;0.86;85.35
19594;BME280;9944;48.240;16.478;2023-01-26T08:32:42;100240.19;;;0.86;85.52
19594;BME280;9944;48.240;16.478;2023-01-26T08:36:45;100247.91;;;0.85;85.39
19594;BME280;9944;48.240;16.478;2023-01-26T08:40:50;100242.78;;;0.86;85.52
19594;BME280;9944;48.240;16.478;2023-01-26T08:44:54;100227.47;;;0.92;85.77
19594;BME280;9944;48.240;16.478;2023-01-26T08:48:58;100227.59;;;0.95;85.72
19594;BME280;9944;48.240;16.478;2023-01-26T08:53:01;100233.03;;;1.01;85.71
19594;BME280;9944;48.240;16.478;2023-01-26T08:57:04;100229.63;;;1.03;85.72
19594;BME280;9944;48.240;16.478;2023-01-26T09:01:10;100225.38;;;1.05;85.83
19594;BME280;9944;48.240;16.478;2023-01-26T09:05:16;100229.69;;;1.04;85.82
19594;BME280;9944;48.240;16.478;2023-01-26T09:09:19;100235.78;;;1.05;85.63
19594;BME280;9944;48.240;16.478;2023-01-26T09:13:22;100228.91;;;1.07;85.81
19594;BME280;9944;48.240;16.478;2023-01-26T09:17:26;100223.66;;;1.05;85.67
19594;BME280;9944;48.240;16.478;2023-01-26T09:21:30;100230.50;;;1.03;85.53
19594;BME280;9944;48.240;16.478;2023-01-26T09:25:35;100236.78;;;1.08;85.75
19594;BME280;9944;48.240;16.478;2023-01-26T09:29:38;100235.97;;;1.09;85.72
19594;BME280;9944;48.240;16.478;2023-01-26T09:33:41;100232.75;;;1.15;85.62
19594;BME280;9944;48.240;16.478;2023-01-26T09:37:47;100233.44;;;1.11;85.29
19594;BME280;9944;48.240;16.478;2023-01-26T09:42:04;100233.31;;;1.08;85.27
19594;BME280;9944;48.240;16.478;2023-01-26T09:46:20;100223.22;;;1.15;85.22
19594;BME280;9944;48.240;16.478;2023-01-26T09:50:26;100217.88;;;1.12;85.36
19594;BME280;9944;48.240;16.478;2023-01-26T09:54:36;100215.34;;;1.14;85.29
19594;BME280;9944;48.240;16.478;2023-01-26T09:58:43;100212.75;;;1.14;85.34
19594;BME280;9944;48.240;16.478;2023-01-26T10:02:55;100216.28;;;1.16;85.38
19594;BME280;9944;48.240;16.478;2023-01-26T10:07:08;100214.59;;;1.16;85.33
19594;BME280;9944;48.240;16.478;2023-01-26T10:11:25;100207.63;;;1.15;85.23
19594;BME280;9944;48.240;16.478;2023-01-26T10:15:33;100201.53;;;1.15;85.24
19594;BME280;9944;48.240;16.478;2023-01-26T10:19:41;100202.47;;;1.17;85.37
19594;BME280;9944;48.240;16.478;2023-01-26T10:23:47;100202.63;;;1.20;85.26
19594;BME280;9944;48.240;16.478;2023-01-26T10:27:52;100195.00;;;1.25;85.45
19594;BME280;9944;48.240;16.478;2023-01-26T10:31:55;100185.72;;;1.31;85.42
19594;BME280;9944;48.240;16.478;2023-01-26T10:35:58;100177.22;;;1.35;85.48
19594;BME280;9944;48.240;16.478;2023-01-26T10:40:03;100167.69;;;1.36;84.71
19594;BME280;9944;48.240;16.478;2023-01-26T10:44:30;100176.22;;;1.32;84.68
19594;BME280;9944;48.240;16.478;2023-01-26T10:48:34;100170.09;;;1.31;84.92
19594;BME280;9944;48.240;16.478;2023-01-26T10:52:55;100168.56;;;1.36;85.02
19594;BME280;9944;48.240;16.478;2023-01-26T10:57:01;100161.84;;;1.42;84.77
19594;BME280;9944;48.240;16.478;2023-01-26T11:01:06;100153.09;;;1.39;84.42
19594;BME280;9944;48.240;16.478;2023-01-26T11:05:18;100143.50;;;1.38;84.55
19594;BME280;9944;48.240;16.478;2023-01-26T11:09:26;100144.56;;;1.44;84.69
19594;BME280;9944;48.240;16.478;2023-01-26T11:13:29;100141.94;;;1.42;84.43
19594;BME280;9944;48.240;16.478;2023-01-26T11:17:37;100143.63;;;1.42;84.28
19594;BME280;9944;48.240;16.478;2023-01-26T11:21:45;100128.03;;;1.42;84.26
19594;BME280;9944;48.240;16.478;2023-01-26T11:26:04;100119.47;;;1.44;84.34
19594;BME280;9944;48.240;16.478;2023-01-26T11:30:37;100113.47;;;1.47;84.37
19594;BME280;9944;48.240;16.478;2023-01-26T11:34:52;100109.00;;;1.43;84.36
19594;BME280;9944;48.240;16.478;2023-01-26T11:39:03;100106.53;;;1.46;84.52
19594;BME280;9944;48.240;16.478;2023-01-26T11:43:26;100094.34;;;1.45;84.27
19594;BME280;9944;48.240;16.478;2023-01-26T11:47:44;100085.72;;;1.46;84.45
19594;BME280;9944;48.240;16.478;2023-01-26T11:52:02;100086.78;;;1.51;84.47
19594;BME280;9944;48.240;16.478;2023-01-26T11:56:21;100082.50;;;1.53;84.43
19594;BME280;9944;48.240;16.478;2023-01-26T12:00:35;100073.97;;;1.57;84.34
19594;BME280;9944;48.240;16.478;2023-01-26T12:04:42;100069.09;;;1.66;84.21
19594;BME280;9944;48.240;16.478;2023-01-26T12:08:53;100067.34;;;1.65;84.12
19594;BME280;9944;48.240;16.478;2023-01-26T12:13:04;100063.91;;;1.66;84.25
19594;BME280;9944;48.240;16.478;2023-01-26T12:17:25;100070.13;;;1.70;84.25
19594;BME280;9944;48.240;16.478;2023-01-26T12:21:31;100060.59;;;1.70;84.16
19594;BME280;9944;48.240;16.478;2023-01-26T12:25:40;100049.34;;;1.71;83.99
19594;BME280;9944;48.240;16.478;2023-01-26T12:29:48;100055.41;;;1.70;83.99
19594;BME280;9944;48.240;16.478;2023-01-26T12:33:55;100048.53;;;1.72;83.85
19594;BME280;9944;48.240;16.478;2023-01-26T12:38:02;100052.06;;;1.74;83.91
19594;BME280;9944;48.240;16.478;2023-01-26T12:42:25;100042.31;;;1.69;83.48
19594;BME280;9944;48.240;16.478;2023-01-26T12:46:36;100040.59;;;1.69;83.45
19594;BME280;9944;48.240;16.478;2023-01-26T12:50:45;100033.66;;;1.68;83.87
19594;BME280;9944;48.240;16.478;2023-01-26T12:54:55;100039.91;;;1.73;83.92
19594;BME280;9944;48.240;16.478;2023-01-26T12:59:08;100029.56;;;1.76;83.88
19594;BME280;9944;48.240;16.478;2023-01-26T13:03:38;100034.03;;;1.79;83.74
19594;BME280;9944;48.240;16.478;2023-01-26T13:07:42;100028.81;;;1.79;83.69
19594;BME280;9944;48.240;16.478;2023-01-26T13:11:50;100025.34;;;1.79;83.70
19594;BME280;9944;48.240;16.478;2023-01-26T13:20:49;100026.28;;;1.81;83.66
19594;BME280;9944;48.240;16.478;2023-01-26T13:24:55;100036.63;;;1.79;83.35
19594;BME280;9944;48.240;16.478;2023-01-26T13:29:30;100028.13;;;1.85;83.68
19594;BME280;9944;48.240;16.478;2023-01-26T13:33:33;100024.28;;;1.99;84.00
19594;BME280;9944;48.240;16.478;2023-01-26T13:37:43;100034.09;;;2.06;84.04
19594;BME280;9944;48.240;16.478;2023-01-26T13:41:50;100034.94;;;2.05;83.27
19594;BME280;9944;48.240;16.478;2023-01-26T13:46:08;100037.41;;;2.02;83.04
19594;BME280;9944;48.240;16.478;2023-01-26T13:50:27;100034.81;;;2.02;82.87
19594;BME280;9944;48.240;16.478;2023-01-26T13:54:32;100029.34;;;1.94;82.64
19594;BME280;9944;48.240;16.478;2023-01-26T13:58:35;100030.22;;;1.95;82.89
19594;BME280;9944;48.240;16.478;2023-01-26T14:02:38;100031.03;;;1.92;82.65
19594;BME280;9944;48.240;16.478;2023-01-26T14:06:43;100027.56;;;1.93;82.66
19594;BME280;9944;48.240;16.478;2023-01-26T14:10:50;100034.69;;;1.98;82.85
19594;BME280;9944;48.240;16.478;2023-01-26T14:14:55;100028.66;;;2.00;82.83
19594;BME280;9944;48.240;16.478;2023-01-26T14:19:03;100033.88;;;2.00;82.44
19594;BME280;9944;48.240;16.478;2023-01-26T14:23:12;100037.34;;;2.01;82.33
19594;BME280;9944;48.240;16.478;2023-01-26T14:27:28;100029.50;;;1.99;82.16
19594;BME280;9944;48.240;16.478;2023-01-26T14:31:31;100033.81;;;1.99;82.12
19594;BME280;9944;48.240;16.478;2023-01-26T14:35:34;100036.44;;;1.99;82.37
19594;BME280;9944;48.240;16.478;2023-01-26T14:39:38;100045.22;;;2.02;82.30
19594;BME280;9944;48.240;16.478;2023-01-26T14:43:44;100037.63;;;2.08;82.31
19594;BME280;9944;48.240;16.478;2023-01-26T14:47:48;100046.38;;;2.10;82.46
19594;BME280;9944;48.240;16.478;2023-01-26T14:51:54;100040.34;;;2.11;82.52
19594;BME280;9944;48.240;16.478;2023-01-26T14:55:58;100035.97;;;2.10;82.08
19594;BME280;9944;48.240;16.478;2023-01-26T15:00:03;100040.75;;;1.98;81.52
19594;BME280;9944;48.240;16.478;2023-01-26T15:04:20;100034.44;;;1.91;81.54
19594;BME280;9944;48.240;16.478;2023-01-26T15:08:25;100026.38;;;1.84;81.72
19594;BME280;9944;48.240;16.478;2023-01-26T15:12:32;100032.28;;;1.80;81.82
19594;BME280;9944;48.240;16.478;2023-01-26T15:16:51;100039.09;;;1.76;81.67
19594;BME280;9944;48.240;16.478;2023-01-26T15:20:56;100036.44;;;1.74;81.62
19594;BME280;9944;48.240;16.478;2023-01-26T15:25:16;100044.25;;;1.74;81.81
19594;BME280;9944;48.240;16.478;2023-01-26T15:29:24;100042.44;;;1.72;81.90
19594;BME280;9944;48.240;16.478;2023-01-26T15:33:43;100044.13;;;1.71;81.99
19594;BME280;9944;48.240;16.478;2023-01-26T15:37:47;100052.78;;;1.70;82.11
19594;BME280;9944;48.240;16.478;2023-01-26T15:42:01;100052.69;;;1.67;82.13
19594;BME280;9944;48.240;16.478;2023-01-26T15:46:09;100058.59;;;1.63;82.00
19594;BME280;9944;48.240;16.478;2023-01-26T15:50:13;100055.16;;;1.64;82.06
19594;BME280;9944;48.240;16.478;2023-01-26T15:54:28;100055.06;;;1.61;81.99
19594;BME280;9944;48.240;16.478;2023-01-26T15:58:31;100058.25;;;1.54;81.99
19594;BME280;9944;48.240;16.478;2023-01-26T16:02:37;100057.50;;;1.56;82.18
19594;BME280;9944;48.240;16.478;2023-01-26T16:06:41;100052.84;;;1.48;81.86
19594;BME280;9944;48.240;16.478;2023-01-26T16:10:45;100056.13;;;1.44;81.98
19594;BME280;9944;48.240;16.478;2023-01-26T16:14:48;100055.00;;;1.35;82.06
19594;BME280;9944;48.240;16.478;2023-01-26T16:18:51;100053.94;;;1.30;81.94
19594;BME280;9944;48.240;16.478;2023-01-26T16:22:55;100052.88;;;1.25;82.17
19594;BME280;9944;48.240;16.478;2023-01-26T16:26:58;100051.09;;;1.24;82.40
19594;BME280;9944;48.240;16.478;2023-01-26T16:31:04;100056.00;;;1.16;82.46
19594;BME280;9944;48.240;16.478;2023-01-26T16:35:16;100045.47;;;1.13;82.57
19594;BME280;9944;48.240;16.478;2023-01-26T16:39:21;100053.22;;;1.12;82.28
19594;BME280;9944;48.240;16.478;2023-01-26T16:43:25;100062.56;;;1.07;82.17
19594;BME280;9944;48.240;16.478;2023-01-26T16:47:29;100051.22;;;1.05;82.35
19594;BME280;9944;48.240;16.478;2023-01-26T16:51:36;100056.28;;;1.01;82.36
19594;BME280;9944;48.240;16.478;2023-01-26T16:55:42;100064.09;;;1.01;82.66
19594;BME280;9944;48.240;16.478;2023-01-26T16:59:45;100051.09;;;1.01;82.78
19594;BME280;9944;48.240;16.478;2023-01-26T17:03:48;100047.69;;;1.03;82.82
19594;BME280;9944;48.240;16.478;2023-01-26T17:07:52;100052.88;;;1.03;82.42
19594;BME280;9944;48.240;16.478;2023-01-26T17:11:56;100050.94;;;0.97;82.32
19594;BME280;9944;48.240;16.478;2023-01-26T17:16:00;100054.28;;;0.94;82.48
19594;BME280;9944;48.240;16.478;2023-01-26T17:20:04;100060.28;;;0.93;82.52
19594;BME280;9944;48.240;16.478;2023-01-26T17:24:20;100059.47;;;0.94;82.70
19594;BME280;9944;48.240;16.478;2023-01-26T17:28:26;100052.63;;;0.96;82.91
19594;BME280;9944;48.240;16.478;2023-01-26T17:32:29;100059.66;;;0.99;82.89
19594;BME280;9944;48.240;16.478;2023-01-26T17:36:32;100058.81;;;1.00;82.93
19594;BME280;9944;48.240;16.478;2023-01-26T17:40:35;100064.16;;;1.03;82.81
19594;BME280;9944;48.240;16.478;2023-01-26T17:44:40;100056.41;;;1.05;82.78
19594;BME280;9944;48.240;16.478;2023-01-26T17:48:44;100048.91;;;1.12;83.19
19594;BME280;9944;48.240;16.478;2023-01-26T17:52:47;100053.69;;;1.24;84.01
19594;BME280;9944;48.240;16.478;2023-01-26T17:56:50;100060.09;;;1.56;85.40
19594;BME280;9944;48.240;16.478;2023-01-26T18:00:55;100046.28;;;1.83;85.27
19594;BME280;9944;48.240;16.478;2023-01-26T18:04:58;100049.56;;;1.77;83.57
19594;BME280;9944;48.240;16.478;2023-01-26T18:09:01;100055.06;;;1.61;82.65
19594;BME280;9944;48.240;16.478;2023-01-26T18:13:04;100046.03;;;1.51;82.96
19594;BME280;9944;48.240;16.478;2023-01-26T18:17:09;100045.97;;;1.50;83.06
19594;BME280;9944;48.240;16.478;2023-01-26T18:21:14;100045.25;;;1.54;83.17
19594;BME280;9944;48.240;16.478;2023-01-26T18:25:17;100044.88;;;1.67;84.07
19594;BME280;9944;48.240;16.478;2023-01-26T18:29:22;100044.88;;;1.67;83.01
19594;BME280;9944;48.240;16.478;2023-01-26T18:33:26;100045.38;;;1.57;82.86
19594;BME280;9944;48.240;16.478;2023-01-26T18:37:29;100038.16;;;1.50;82.68
19594;BME280;9944;48.240;16.478;2023-01-26T18:41:34;100056.19;;;1.45;82.36
19594;BME280;9944;48.240;16.478;2023-01-26T18:45:39;100050.84;;;1.41;82.24
19594;BME280;9944;48.240;16.478;2023-01-26T18:49:45;100049.06;;;1.39;82.14
19594;BME280;9944;48.240;16.478;2023-01-26T18:53:48;100054.06;;;1.33;82.05
19594;BME280;9944;48.240;16.478;2023-01-26T18:57:51;100054.38;;;1.43;82.56
19594;BME280;9944;48.240;16.478;2023-01-26T19:01:55;100056.25;;;1.47;82.35
19594;BME280;9944;48.240;16.478;2023-01-26T19:06:01;100057.81;;;1.42;81.75
19594;BME280;9944;48.240;16.478;2023-01-26T19:10:05;100053.25;;;1.36;80.95
19594;BME280;9944;48.240;16.478;2023-01-26T19:14:08;100047.53;;;1.22;80.42
19594;BME280;9944;48.240;16.478;2023-01-26T19:18:11;100053.09;;;1.09;80.53
19594;BME280;9944;48.240;16.478;2023-01-26T19:22:16;100046.94;;;1.07;80.83
19594;BME280;9944;48.240;16.478;2023-01-26T19:26:21;100046.25;;;1.11;81.01
19594;BME280;9944;48.240;16.478;2023-01-26T19:30:25;100046.13;;;1.08;80.63
19594;BME280;9944;48.240;16.478;2023-01-26T19:34:28;100050.97;;;0.98;80.43
19594;BME280;9944;48.240;16.478;2023-01-26T19:38:35;100039.47;;;0.92;80.17
19594;BME280;9944;48.240;16.478;2023-01-26T19:42:40;100042.00;;;0.90;80.50
19594;BME280;9944;48.240;16.478;2023-01-26T19:46:43;100033.94;;;0.84;80.14
19594;BME280;9944;48.240;16.478;2023-01-26T19:50:56;100035.34;;;0.76;80.00
19594;BME280;9944;48.240;16.478;2023-01-26T19:55:01;100045.59;;;0.71;80.22
19594;BME280;9944;48.240;16.478;2023-01-26T19:59:06;100046.47;;;0.72;80.25
19594;BME280;9944;48.240;16.478;2023-01-26T20:03:10;100047.28;;;0.71;80.49
19594;BME280;9944;48.240;16.478;2023-01-26T20:07:14;100053.72;;;0.80;80.76
19594;BME280;9944;48.240;16.478;2023-01-26T20:11:18;100043.41;;;0.82;80.53
19594;BME280;9944;48.240;16.478;2023-01-26T20:15:25;100048.59;;;0.82;80.73
19594;BME280;9944;48.240;16.478;2023-01-26T20:19:29;100053.81;;;0.82;80.41
19594;BME280;9944;48.240;16.478;2023-01-26T20:23:35;100060.66;;;0.80;80.45
19594;BME280;9944;48.240;16.478;2023-01-26T20:27:47;100052.94;;;0.81;80.15
19594;BME280;9944;48.240;16.478;2023-01-26T20:31:50;100055.19;;;0.74;79.69
19594;BME280;9944;48.240;16.478;2023-01-26T20:35:53;100052.53;;;0.72;79.85
19594;BME280;9944;48.240;16.478;2023-01-26T20:39:57;100048.25;;;0.73;80.06
19594;BME280;9944;48.240;16.478;2023-01-26T20:44:02;100054.19;;;0.70;80.03
19594;BME280;9944;48.240;16.478;2023-01-26T20:48:06;100044.81;;;0.74;80.28
19594;BME280;9944;48.240;16.478;2023-01-26T20:52:09;100051.78;;;0.75;80.13
19594;BME280;9944;48.240;16.478;2023-01-26T20:56:13;100051.66;;;0.72;80.08
19594;BME280;9944;48.240;16.478;2023-01-26T21:00:19;100056.84;;;0.72;80.04
19594;BME280;9944;48.240;16.478;2023-01-26T21:04:22;100046.47;;;0.72;80.01
19594;BME280;9944;48.240;16.478;2023-01-26T21:08:26;100037.94;;;0.76;80.12
19594;BME280;9944;48.240;16.478;2023-01-26T21:12:30;100035.19;;;0.71;79.68
19594;BME280;9944;48.240;16.478;2023-01-26T21:16:36;100042.94;;;0.70;79.79
19594;BME280;9944;48.240;16.478;2023-01-26T21:20:39;100035.13;;;0.70;79.79
19594;BME280;9944;48.240;16.478;2023-01-26T21:24:42;100039.47;;;0.71;79.89
19594;BME280;9944;48.240;16.478;2023-01-26T21:28:48;100041.19;;;0.70;79.85
19594;BME280;9944;48.240;16.478;2023-01-26T21:32:53;100048.94;;;0.69;79.73
19594;BME280;9944;48.240;16.478;2023-01-26T21:36:56;100044.59;;;0.68;79.63
19594;BME280;9944;48.240;16.478;2023-01-26T21:41:00;100036.78;;;0.68;79.74
19594;BME280;9944;48.240;16.478;2023-01-26T21:45:04;100045.53;;;0.70;79.65
19594;BME280;9944;48.240;16.478;2023-01-26T21:49:27;100042.94;;;0.70;79.73
19594;BME280;9944;48.240;16.478;2023-01-26T21:53:30;100045.47;;;0.68;79.61